Airfield :
LOGIN :

Register | Disclaimer

   EN    FR    IT 

 










Legend :    VFR   Marginal VFR   IFR   Intensive IFR   Very Intensive IFR
Visi :
Ceiling :
>= 8 km
>= 3000ft
5 to 8 km
1000 to 3000 ft
1500m to 5 km
500 to 1000 ft
800 to 1500m
200 to 500 ft
< 800m
< 200 ft
Symbols :   Thunderstorms  Fog  Heavy snow  Heavy precipitations  Wind > 20 kt
SIGMETs :     Misc.  Thunderstorms  Icing  Turbulence  Mountain Waves  Volcanic Ashes






- Airport Elevation : 236 ft
- IATA code : MMX


ESMS - Malmö Sturup

CURRENT METAR :
  • 151950Z 10017KT 3100 -DZ OVC004 09/08 Q1010

EXPIRED METARs :
  • 151920Z 09021KT 2300 -RA OVC003 09/08 Q1010
  • 151850Z 09019KT 4000 BR OVC003 09/08 Q1010
  • 151820Z 09022KT 6000 BR OVC003 08/08 Q1010
  • 151750Z 08022KT 9999 OVC005 08/07 Q1010
  • 151720Z 09021G32KT 9999 OVC007 08/07 Q1010

TAF AMD TAF ESMS
Valid from the 15 at 18:00 until the 16 at 18:00 UTC


151832Z 1518/1618 09018KT 9999 BKN008
TEMPO 1518/1524 2000 -RADZ BR BKN003
TEMPO 1600/1609 BKN010
TEMPO 1609/1618 3000 RADZ BR BKN004
BECMG 1615/1618 21020G32KT



MET'MAP, your aeronautical weather chart ! - Copyright ORBIFLY December 2007 - Disclaimer

ORBIFLY MET'MAP TEAM :

Programming & Development : Alexandra Zaïnal
Concept & Development : Baudouin d'Aumeries
Co-Development & Prog : Marc-Olivier Méhu
Technical & hardware support : Manuel Goepfert

Contact : metmap@orbifly.com




SOURCES & CREDITS :

   NOAA